createdAt,value
2023-02-24T00:00:06.931Z,22.48
2023-02-24T00:01:06.929Z,22.40
2023-02-24T00:02:07.045Z,22.43
2023-02-24T00:03:06.963Z,22.48
2023-02-24T00:04:06.936Z,22.46
2023-02-24T00:05:06.907Z,22.49
2023-02-24T00:06:06.909Z,22.39
2023-02-24T00:07:06.911Z,22.57
2023-02-24T00:08:06.923Z,22.51
2023-02-24T00:09:06.909Z,22.48
2023-02-24T00:10:06.928Z,22.43
2023-02-24T00:11:06.992Z,22.45
2023-02-24T00:12:07.001Z,22.43
2023-02-24T00:13:07.042Z,22.42
2023-02-24T00:14:07.083Z,22.42
2023-02-24T00:15:07.134Z,22.37
2023-02-24T00:16:07.234Z,22.42
2023-02-24T00:17:07.310Z,22.52
2023-02-24T00:18:07.414Z,22.43
2023-02-24T00:19:07.337Z,22.34
2023-02-24T00:20:07.338Z,22.57
2023-02-24T00:21:07.393Z,22.34
2023-02-24T00:22:07.467Z,22.36
2023-02-24T00:23:07.498Z,22.43
2023-02-24T00:24:07.533Z,22.30
2023-02-24T00:25:07.583Z,22.42
2023-02-24T00:26:07.629Z,22.36
2023-02-24T00:27:07.978Z,22.43
2023-02-24T00:28:07.728Z,22.33
2023-02-24T00:29:07.765Z,22.33
2023-02-24T00:30:07.834Z,22.30
2023-02-24T00:31:08.091Z,22.39
2023-02-24T00:32:08.242Z,22.31
2023-02-24T00:33:08.178Z,22.31
2023-02-24T00:34:08.031Z,22.28
2023-02-24T00:35:08.097Z,22.33
2023-02-24T00:36:08.109Z,22.38
2023-02-24T00:37:08.217Z,22.36
2023-02-24T00:38:08.242Z,22.36
2023-02-24T00:39:08.293Z,22.28
2023-02-24T00:40:08.313Z,22.33
2023-02-24T00:41:08.380Z,22.36
2023-02-24T00:42:08.464Z,22.33
2023-02-24T00:43:08.480Z,22.33
2023-02-24T00:44:08.523Z,22.31
2023-02-24T00:45:08.541Z,22.24
2023-02-24T00:46:08.585Z,22.28
2023-02-24T00:47:08.628Z,22.19
2023-02-24T00:48:08.704Z,22.17
2023-02-24T00:49:08.693Z,22.16
2023-02-24T00:50:08.784Z,22.13
2023-02-24T00:51:08.814Z,22.13
2023-02-24T00:52:08.878Z,22.16
2023-02-24T00:54:08.989Z,22.24
2023-02-24T00:55:09.020Z,22.28
2023-02-24T00:56:09.089Z,22.22
2023-02-24T03:27:16.490Z,21.86
2023-02-24T03:28:16.535Z,21.91
2023-02-24T03:29:16.599Z,21.83
2023-02-24T03:30:16.681Z,21.98
2023-02-24T03:31:16.765Z,21.88
2023-02-24T03:32:17.004Z,21.92
2023-02-24T03:33:16.851Z,21.92
2023-02-24T03:34:16.907Z,21.95
2023-02-24T03:35:17.029Z,21.91
2023-02-24T03:36:17.028Z,21.89
2023-02-24T03:37:17.077Z,21.85
2023-02-24T03:38:17.093Z,21.83
2023-02-24T03:39:17.157Z,21.86
2023-02-24T03:40:17.194Z,21.77
2023-02-24T03:41:17.168Z,21.86
2023-02-24T03:42:17.190Z,21.77
2023-02-24T03:43:17.230Z,21.83
2023-02-24T03:44:17.226Z,21.82
2023-02-24T03:45:17.239Z,21.74
2023-02-24T03:46:17.364Z,21.86
2023-02-24T03:47:17.288Z,21.77
2023-02-24T03:48:17.337Z,21.82
2023-02-24T03:49:17.279Z,21.79
2023-02-24T03:53:17.367Z,21.88
2023-02-24T03:54:17.430Z,21.77
2023-02-24T03:55:17.521Z,21.86
2023-02-24T03:56:17.583Z,21.85
2023-02-24T03:57:17.630Z,21.85
2023-02-24T03:58:17.692Z,21.88
2023-02-24T03:59:17.764Z,21.83
2023-02-24T04:00:17.817Z,21.86
2023-02-24T04:01:17.979Z,21.97
2023-02-24T04:02:18.047Z,21.77
2023-02-24T04:03:18.011Z,21.79
2023-02-24T04:04:18.141Z,21.77
2023-02-24T04:05:18.098Z,21.80
2023-02-24T04:06:18.179Z,21.73
2023-02-24T04:07:18.285Z,21.73
2023-02-24T04:08:18.301Z,21.76
2023-02-24T04:09:18.380Z,21.79
2023-02-24T04:10:18.430Z,21.73
2023-02-24T04:11:18.707Z,21.71
2023-02-24T04:12:18.576Z,21.74
2023-02-24T04:13:18.584Z,21.71
2023-02-24T04:14:18.653Z,21.83
2023-02-24T04:15:18.724Z,21.74
2023-02-24T04:16:18.724Z,21.71
2023-02-24T04:17:18.839Z,21.77
2023-02-24T04:18:18.842Z,21.72
2023-02-24T04:19:18.874Z,21.76
2023-02-24T04:20:18.972Z,21.82
2023-02-24T04:21:19.358Z,21.83
2023-02-24T04:22:19.005Z,21.92
2023-02-24T04:23:19.029Z,21.90
2023-02-24T04:24:19.041Z,21.83
2023-02-24T04:25:19.035Z,21.77
2023-02-24T04:26:19.089Z,21.89
2023-02-24T04:27:19.096Z,21.80
2023-02-24T04:28:19.130Z,21.80
2023-02-24T04:29:19.116Z,21.77
2023-02-24T04:30:19.176Z,21.80
2023-02-24T04:31:19.383Z,21.69
2023-02-24T04:32:19.311Z,21.77
2023-02-24T04:33:19.204Z,21.69
2023-02-24T04:34:19.249Z,21.71
2023-02-24T04:35:19.278Z,21.71
2023-02-24T04:36:19.282Z,21.69
2023-02-24T04:37:19.299Z,21.72
2023-02-24T04:38:19.335Z,21.83
2023-02-24T04:39:19.322Z,21.77
2023-02-24T04:40:19.343Z,21.72
2023-02-24T04:41:19.747Z,21.75
2023-02-24T04:42:19.394Z,21.74
2023-02-24T04:43:19.403Z,21.84
2023-02-24T04:44:19.458Z,21.65
2023-02-24T04:45:19.448Z,21.75
2023-02-24T04:46:19.546Z,21.72
2023-02-24T04:47:19.559Z,21.66
2023-02-24T04:48:19.539Z,21.69
2023-02-24T04:49:19.618Z,21.68
2023-02-24T04:50:19.654Z,21.75
2023-02-24T04:51:20.025Z,21.75
2023-02-24T04:52:19.772Z,21.72
2023-02-24T04:53:19.810Z,21.69
2023-02-24T04:54:19.913Z,21.66
2023-02-24T04:55:19.892Z,21.66
2023-02-24T04:56:19.959Z,21.66
2023-02-24T04:57:20.029Z,21.68
2023-02-24T04:58:20.092Z,21.68
2023-02-24T04:59:20.165Z,21.71
2023-02-24T05:00:20.155Z,21.65
2023-02-24T05:01:20.597Z,21.69
2023-02-24T05:02:20.328Z,21.63
2023-02-24T05:03:20.371Z,21.68
2023-02-24T05:04:20.413Z,21.74
2023-02-24T05:05:20.401Z,21.65
2023-02-24T05:06:20.452Z,21.64
2023-02-24T05:07:20.541Z,21.69
2023-02-24T05:08:20.605Z,21.72
2023-02-24T05:09:20.654Z,21.69
2023-02-24T05:10:20.697Z,21.71
2023-02-24T05:11:21.172Z,21.74
2023-02-24T05:12:20.755Z,21.76
2023-02-24T05:13:20.813Z,21.73
2023-02-24T05:14:20.972Z,21.69
2023-02-24T05:15:20.875Z,21.72
2023-02-24T05:16:20.958Z,21.69
2023-02-24T05:17:20.996Z,21.69
2023-02-24T05:18:21.081Z,21.64
2023-02-24T05:19:21.070Z,21.70
2023-02-24T05:20:21.086Z,21.66
2023-02-24T05:21:21.450Z,21.66
2023-02-24T05:22:21.160Z,21.66
2023-02-24T05:23:21.217Z,21.64
2023-02-24T05:24:21.221Z,21.70
2023-02-24T05:25:21.238Z,21.86
2023-02-24T05:26:21.257Z,21.72
2023-02-24T05:27:21.296Z,21.64
2023-02-24T05:28:21.345Z,21.68
2023-02-24T05:29:21.402Z,21.68
2023-02-24T05:30:21.428Z,21.64
2023-02-24T05:31:21.920Z,21.68
2023-02-24T05:32:21.622Z,21.71
2023-02-24T05:33:21.511Z,21.60
2023-02-24T05:34:21.571Z,21.64
2023-02-24T05:35:21.560Z,21.69
2023-02-24T05:36:21.620Z,21.76
2023-02-24T05:37:21.605Z,21.82
2023-02-24T05:38:21.660Z,21.76
2023-02-24T05:39:21.688Z,21.79
2023-02-24T05:40:21.700Z,21.69
2023-02-24T05:41:21.934Z,21.66
2023-02-24T05:42:21.720Z,21.64
2023-02-24T05:43:21.745Z,21.63
2023-02-24T05:44:21.760Z,21.60
2023-02-24T05:45:21.779Z,21.66
2023-02-24T05:46:21.835Z,21.68
2023-02-24T05:47:21.874Z,21.63
2023-02-24T05:48:21.834Z,21.57
2023-02-24T05:49:21.832Z,21.56
2023-02-24T05:50:21.871Z,21.54
2023-02-24T05:51:22.236Z,21.59
2023-02-24T05:52:21.989Z,21.62
2023-02-24T05:53:22.088Z,21.52
2023-02-24T05:54:22.083Z,21.62
2023-02-24T05:55:22.095Z,21.72
2023-02-24T05:56:22.072Z,21.64
2023-02-24T05:57:22.108Z,21.57
2023-02-24T05:58:22.122Z,21.54
2023-02-24T05:59:22.166Z,21.63
2023-02-24T06:00:22.197Z,21.57
2023-02-24T06:01:29.187Z,21.62
2023-02-24T06:37:21.937Z,21.78
2023-02-24T06:38:21.898Z,21.85
2023-02-24T06:39:21.963Z,21.97
2023-02-24T06:40:21.950Z,22.05
2023-02-24T06:41:23.231Z,22.11
2023-02-24T06:42:21.916Z,22.26
2023-02-24T06:43:21.918Z,22.20
2023-02-24T06:44:21.849Z,22.76
2023-02-24T06:45:21.888Z,22.41
2023-02-24T06:46:28.927Z,22.50
2023-02-24T06:47:21.884Z,22.54
2023-02-24T06:48:21.844Z,22.72
2023-02-24T06:49:21.864Z,22.69
2023-02-24T06:50:21.962Z,22.92
2023-02-24T06:51:22.102Z,23.05
2023-02-24T06:52:22.906Z,23.04
2023-02-24T06:53:21.988Z,23.09
2023-02-24T06:54:21.810Z,23.38
2023-02-24T06:55:21.802Z,23.14
2023-02-24T06:56:21.805Z,23.18
2023-02-24T06:57:21.796Z,23.17
2023-02-24T06:58:21.801Z,23.20
2023-02-24T06:59:21.923Z,23.16
2023-02-24T07:00:21.822Z,23.10
2023-02-24T07:01:22.145Z,23.32
2023-02-24T07:02:21.730Z,23.21
2023-02-24T07:03:21.940Z,23.28
2023-02-24T07:04:21.815Z,23.72
2023-02-24T07:05:21.739Z,23.66
2023-02-24T07:06:21.722Z,23.65
2023-02-24T07:07:21.736Z,23.81
2023-02-24T07:08:22.045Z,23.85
2023-02-24T07:09:21.738Z,24.30
2023-02-24T07:10:21.688Z,24.29
2023-02-24T07:11:22.120Z,24.67
2023-02-24T07:12:21.677Z,24.39
2023-02-24T07:13:21.711Z,24.56
2023-02-24T07:14:21.670Z,24.50
2023-02-24T07:15:21.671Z,24.57
2023-02-24T07:16:21.675Z,24.35
2023-02-24T07:17:21.679Z,24.37
2023-02-24T07:18:21.635Z,24.24
2023-02-24T07:19:21.647Z,24.94
2023-02-24T07:20:21.597Z,25.14
2023-02-24T07:21:21.951Z,25.35
2023-02-24T07:22:21.609Z,25.40
2023-02-24T07:23:21.984Z,25.48
2023-02-24T07:24:21.582Z,25.44
2023-02-24T07:25:21.575Z,25.46
2023-02-24T07:26:21.593Z,25.60
2023-02-24T07:27:21.539Z,25.74
2023-02-24T07:28:21.614Z,25.91
2023-02-24T07:29:21.553Z,25.99
2023-02-24T07:30:21.573Z,26.20
2023-02-24T07:31:21.965Z,26.30
2023-02-24T07:33:21.506Z,26.30
2023-02-24T07:34:21.552Z,26.33
2023-02-24T07:35:21.543Z,26.45
2023-02-24T07:36:21.613Z,26.74
2023-02-24T07:37:21.666Z,26.80
2023-02-24T07:38:21.708Z,26.83
2023-02-24T07:39:21.995Z,27.01
2023-02-24T07:40:21.790Z,26.91
2023-02-24T07:41:22.223Z,27.17
2023-02-24T07:42:21.912Z,27.10
2023-02-24T07:43:21.946Z,27.10
2023-02-24T07:44:22.033Z,27.24
2023-02-24T07:45:22.086Z,27.26
2023-02-24T07:46:22.145Z,27.20
2023-02-24T07:47:22.194Z,27.24
2023-02-24T07:48:22.204Z,27.34
2023-02-24T07:49:22.201Z,27.28
2023-02-24T07:50:22.213Z,27.20
2023-02-24T07:51:22.448Z,27.45
2023-02-24T07:52:22.214Z,27.41
2023-02-24T07:53:22.176Z,27.40
2023-02-24T07:54:22.192Z,27.65
2023-02-24T07:55:22.203Z,27.83
2023-02-24T07:56:22.328Z,27.55
2023-02-24T07:57:22.267Z,27.74
2023-02-24T07:58:22.218Z,27.71
2023-02-24T07:59:22.303Z,27.65
2023-02-24T08:00:22.243Z,27.57
2023-02-24T08:01:22.758Z,27.57
2023-02-24T08:02:22.387Z,27.76
2023-02-24T08:03:22.418Z,27.71
2023-02-24T08:04:22.449Z,27.68
2023-02-24T08:05:22.496Z,27.64
2023-02-24T08:06:22.514Z,27.63
2023-02-24T08:07:22.588Z,27.74
2023-02-24T08:08:22.578Z,27.85
2023-02-24T08:09:22.650Z,27.83
2023-02-24T08:10:22.707Z,27.98
2023-02-24T08:11:22.750Z,28.11
2023-02-24T08:12:22.852Z,28.14
2023-02-24T08:13:22.839Z,28.19
2023-02-24T08:14:22.886Z,28.21
2023-02-24T08:15:22.883Z,27.97
2023-02-24T08:16:22.958Z,27.82
2023-02-24T08:17:22.900Z,28.29
2023-02-24T08:18:22.901Z,27.32
2023-02-24T08:19:22.914Z,27.22
2023-02-24T08:20:22.950Z,27.12
2023-02-24T08:21:23.128Z,24.92
2023-02-24T08:22:22.901Z,26.04
2023-02-24T08:23:22.944Z,25.22
2023-02-24T08:24:25.143Z,25.33
2023-02-24T08:25:22.958Z,25.45
2023-02-24T08:26:23.016Z,24.69
2023-02-24T08:27:22.922Z,25.20
2023-02-24T08:28:22.882Z,24.92
2023-02-24T08:29:22.913Z,25.04
2023-02-24T08:30:23.013Z,25.56
2023-02-24T08:31:23.346Z,24.91
2023-02-24T08:32:23.082Z,25.30
2023-02-24T08:33:23.008Z,25.70
2023-02-24T08:34:22.978Z,25.63
2023-02-24T08:35:22.959Z,25.80
2023-02-24T08:36:22.940Z,25.18
2023-02-24T08:37:22.952Z,25.36
2023-02-24T08:38:24.769Z,25.50
2023-02-24T08:39:22.966Z,25.63
2023-02-24T08:40:22.907Z,25.54
2023-02-24T08:41:23.386Z,25.33
2023-02-24T08:42:22.919Z,25.57
2023-02-24T08:43:22.897Z,25.65
2023-02-24T08:44:22.944Z,25.80
2023-02-24T08:46:22.907Z,26.29
2023-02-24T08:47:22.916Z,26.36
2023-02-24T08:48:22.868Z,26.93
2023-02-24T08:49:22.932Z,26.81
2023-02-24T08:50:22.848Z,26.77
2023-02-24T08:51:23.692Z,26.68
2023-02-24T08:52:22.858Z,26.94
2023-02-24T08:53:22.858Z,27.00
2023-02-24T08:54:22.847Z,27.03
2023-02-24T08:55:22.848Z,27.00
2023-02-24T08:56:23.067Z,27.24
2023-02-24T08:57:22.822Z,28.03
2023-02-24T08:58:22.805Z,27.77
2023-02-24T08:59:22.843Z,27.66
2023-02-24T09:00:22.782Z,27.73
2023-02-24T09:01:23.381Z,27.89
2023-02-24T09:02:22.788Z,27.55
2023-02-24T09:03:22.789Z,27.37
2023-02-24T09:04:22.804Z,27.23
2023-02-24T09:05:22.743Z,27.29
2023-02-24T09:06:22.783Z,27.19
2023-02-24T09:07:22.745Z,26.84
2023-02-24T09:08:22.758Z,26.91
2023-02-24T09:09:22.831Z,26.81
2023-02-24T09:10:22.747Z,26.78
2023-02-24T09:11:23.492Z,26.70
2023-02-24T09:12:22.691Z,26.77
2023-02-24T09:13:22.726Z,26.64
2023-02-24T09:14:27.923Z,26.61
2023-02-24T09:15:23.718Z,26.59
2023-02-24T09:16:22.781Z,26.52
2023-02-24T09:31:23.331Z,26.21
2023-02-24T11:37:25.419Z,29.80
2023-02-24T11:38:25.500Z,29.58
2023-02-24T11:39:25.576Z,29.48
2023-02-24T11:40:26.058Z,29.35
2023-02-24T11:41:25.698Z,29.31
2023-02-24T11:43:25.834Z,29.25
2023-02-24T12:20:26.590Z,27.60
2023-02-24T12:25:26.509Z,27.52
2023-02-24T12:26:26.534Z,27.33
2023-02-24T12:27:26.571Z,27.45
2023-02-24T12:28:26.605Z,27.22
2023-02-24T12:29:26.638Z,27.39
2023-02-24T12:30:26.703Z,27.09
2023-02-24T12:31:27.527Z,27.04
2023-02-24T12:32:26.923Z,27.26
2023-02-24T12:33:26.819Z,27.22
2023-02-24T12:34:26.878Z,27.22
2023-02-24T12:35:26.955Z,26.94
2023-02-24T12:36:28.726Z,26.91
2023-02-24T12:37:26.963Z,26.95
2023-02-24T12:38:26.969Z,26.55
2023-02-24T12:39:26.963Z,26.42
2023-02-24T12:40:26.956Z,26.42
2023-02-24T12:41:27.042Z,26.59
2023-02-24T12:42:26.946Z,26.43
2023-02-24T12:43:26.942Z,26.12
2023-02-24T12:44:26.946Z,26.03
2023-02-24T12:45:26.970Z,25.97
2023-02-24T12:46:26.949Z,26.03
2023-02-24T12:47:26.913Z,26.05
2023-02-24T12:48:26.897Z,25.91
2023-02-24T12:49:26.907Z,25.43
2023-02-24T12:50:26.884Z,25.52
2023-02-24T12:51:27.086Z,25.71
2023-02-24T12:52:26.897Z,25.75
2023-02-24T12:53:26.840Z,25.62
2023-02-24T12:54:26.850Z,25.48
2023-02-24T12:55:26.841Z,25.46
2023-02-24T12:56:26.859Z,25.31
2023-02-24T12:57:26.829Z,25.06
2023-02-24T12:58:26.867Z,25.05
2023-02-24T12:59:26.843Z,25.06
2023-02-24T13:00:26.848Z,25.02
2023-02-24T13:01:26.963Z,25.00
2023-02-24T13:02:26.834Z,25.02
2023-02-24T13:03:26.781Z,24.99
2023-02-24T13:04:26.826Z,24.51
2023-02-24T13:05:26.769Z,24.55
2023-02-24T13:06:26.786Z,24.55
2023-02-24T13:07:26.788Z,24.65
2023-02-24T13:08:26.745Z,24.71
2023-02-24T13:09:26.744Z,24.55
2023-02-24T13:10:26.763Z,24.46
2023-02-24T13:11:26.732Z,24.54
2023-02-24T13:12:26.727Z,24.55
2023-02-24T13:13:26.735Z,24.55
2023-02-24T13:14:26.721Z,24.49
2023-02-24T13:15:26.783Z,24.34
2023-02-24T13:16:26.881Z,24.23
2023-02-24T13:17:26.850Z,24.34
2023-02-24T13:18:26.903Z,24.30
2023-02-24T13:19:26.948Z,24.24
2023-02-24T13:20:26.917Z,24.10
2023-02-24T13:21:26.953Z,23.97
2023-02-24T13:22:27.034Z,23.92
2023-02-24T13:23:27.100Z,24.00
2023-02-24T13:24:27.096Z,23.82
2023-02-24T13:25:27.120Z,23.86
2023-02-24T13:26:27.144Z,23.65
2023-02-24T13:27:27.174Z,23.59
2023-02-24T13:28:27.181Z,23.66
2023-02-24T13:29:27.208Z,23.63
2023-02-24T13:30:27.277Z,23.53
2023-02-24T13:31:27.303Z,23.35
2023-02-24T13:32:27.286Z,23.39
2023-02-24T13:33:27.197Z,23.32
2023-02-24T13:34:27.214Z,23.33
2023-02-24T13:35:27.226Z,23.33
2023-02-24T13:36:27.235Z,23.27
2023-02-24T13:37:27.193Z,23.32
2023-02-24T13:38:27.205Z,23.21
2023-02-24T13:39:27.234Z,23.23
2023-02-24T13:40:27.267Z,23.23
2023-02-24T13:41:27.224Z,23.17
2023-02-24T13:42:27.213Z,23.23
2023-02-24T13:43:27.183Z,23.05
2023-02-24T13:44:27.247Z,22.93
2023-02-24T13:45:27.283Z,22.99
2023-02-24T13:46:27.437Z,22.94
2023-02-24T13:47:27.367Z,22.88
2023-02-24T13:48:27.409Z,22.91
2023-02-24T13:49:27.418Z,22.94
2023-02-24T13:50:27.492Z,22.85
2023-02-24T13:51:27.521Z,22.88
2023-02-24T13:52:27.606Z,22.85
2023-02-24T13:53:27.662Z,22.77
2023-02-24T13:54:27.616Z,22.73
2023-02-24T13:55:27.634Z,22.83
2023-02-24T13:56:27.673Z,22.87
2023-02-24T13:57:27.622Z,22.82
2023-02-24T13:58:27.628Z,22.76
2023-02-24T13:59:27.623Z,22.61
2023-02-24T14:00:27.619Z,22.58
2023-02-24T14:01:27.650Z,22.64
2023-02-24T14:02:27.667Z,22.61
2023-02-24T14:03:27.697Z,22.56
2023-02-24T14:04:29.552Z,22.62
2023-02-24T14:05:27.747Z,22.61
2023-02-24T14:06:27.788Z,22.64
2023-02-24T14:07:27.845Z,22.46
2023-02-24T14:08:27.874Z,22.47
2023-02-24T14:09:28.016Z,22.37
2023-02-24T14:10:27.996Z,22.40
2023-02-24T14:11:28.050Z,22.35
2023-02-24T14:12:28.109Z,22.25
2023-02-24T14:13:28.183Z,22.25
2023-02-24T14:14:28.202Z,22.13
2023-02-24T14:15:28.221Z,22.11
2023-02-24T14:16:28.384Z,22.26
2023-02-24T14:17:28.328Z,22.28
2023-02-24T14:18:28.401Z,22.34
2023-02-24T14:19:28.404Z,23.62
2023-02-24T14:20:28.442Z,27.56
2023-02-24T14:21:28.491Z,27.98
2023-02-24T14:22:28.540Z,26.65
2023-02-24T14:23:28.587Z,26.41
2023-02-24T14:24:28.651Z,25.99
2023-02-24T14:25:28.710Z,27.34
2023-02-24T14:26:28.762Z,26.03
2023-02-24T14:27:28.809Z,26.09
2023-02-24T14:28:28.895Z,26.29
2023-02-24T14:29:28.937Z,27.28
2023-02-24T14:30:29.071Z,28.72
2023-02-24T14:31:29.186Z,28.74
2023-02-24T14:32:29.313Z,28.21
2023-02-24T14:33:29.204Z,28.38
2023-02-24T14:34:29.255Z,28.13
2023-02-24T14:35:29.338Z,28.24
2023-02-24T14:36:29.361Z,28.21
2023-02-24T14:37:29.377Z,28.53
2023-02-24T14:38:29.386Z,28.93
2023-02-24T14:39:29.482Z,28.94
2023-02-24T14:40:29.457Z,28.77
2023-02-24T14:41:29.508Z,28.73
2023-02-24T14:42:29.499Z,28.91
2023-02-24T14:43:29.498Z,28.72
2023-02-24T14:44:29.499Z,28.71
2023-02-24T14:45:29.562Z,28.68
2023-02-24T14:46:29.598Z,28.48
2023-02-24T14:47:29.552Z,28.36
2023-02-24T14:48:29.570Z,28.40
2023-02-24T14:49:29.645Z,28.16
2023-02-24T14:50:29.653Z,28.14
2023-02-24T14:51:29.663Z,28.03
2023-02-24T14:52:29.669Z,27.85
2023-02-24T14:53:29.679Z,27.74
2023-02-24T14:54:29.708Z,27.68
2023-02-24T14:55:29.734Z,27.66
2023-02-24T14:56:29.842Z,27.53
2023-02-24T14:57:29.749Z,27.29
2023-02-24T14:58:29.761Z,27.33
2023-02-24T14:59:29.781Z,27.27
2023-02-24T15:00:29.819Z,27.02
2023-02-24T15:01:29.867Z,26.99
2023-02-24T15:02:29.851Z,27.04
2023-02-24T15:03:30.018Z,26.87
2023-02-24T15:04:29.889Z,26.81
2023-02-24T15:05:29.888Z,26.78
2023-02-24T15:06:29.890Z,26.66
2023-02-24T15:07:29.908Z,26.38
2023-02-24T15:08:29.946Z,26.32
2023-02-24T15:19:30.181Z,25.63
2023-02-24T15:20:30.259Z,25.30
2023-02-24T15:21:30.306Z,25.36
2023-02-24T15:22:30.346Z,25.36
2023-02-24T15:23:30.398Z,25.31
2023-02-24T15:24:30.455Z,25.24
2023-02-24T15:25:41.932Z,24.99
2023-02-24T15:26:31.525Z,24.97
2023-02-24T15:27:30.518Z,25.03
2023-02-24T15:28:30.542Z,25.00
2023-02-24T15:29:30.510Z,24.94
2023-02-24T15:30:30.524Z,24.90
2023-02-24T15:31:30.651Z,24.87
2023-02-24T15:32:30.601Z,24.80
2023-02-24T15:33:30.491Z,24.66
2023-02-24T15:34:30.500Z,24.69
2023-02-24T15:35:30.540Z,24.51
2023-02-24T15:36:30.612Z,24.43
2023-02-24T15:37:30.686Z,24.40
2023-02-24T15:38:30.760Z,24.44
2023-02-24T15:40:30.869Z,24.29
2023-02-24T15:41:30.920Z,24.52
2023-02-24T15:42:30.981Z,24.17
2023-02-24T15:43:31.068Z,24.19
2023-02-24T15:44:31.104Z,24.23
2023-02-24T15:45:31.190Z,24.06
2023-02-24T15:46:31.272Z,24.48
2023-02-24T15:47:31.293Z,24.13
2023-02-24T15:48:31.496Z,24.05
2023-02-24T15:49:31.392Z,23.82
2023-02-24T15:50:31.491Z,23.88
2023-02-24T15:51:31.513Z,23.88
2023-02-24T15:52:31.543Z,23.75
2023-02-24T15:53:31.608Z,23.67
2023-02-24T15:54:31.633Z,23.74
2023-02-24T15:55:31.675Z,23.68
2023-02-24T15:56:31.710Z,23.57
2023-02-24T15:57:31.733Z,23.56
2023-02-24T15:58:31.750Z,23.40
2023-02-24T15:59:31.823Z,23.61
2023-02-24T16:00:31.959Z,23.51
2023-02-24T16:01:31.894Z,23.48
2023-02-24T16:02:32.023Z,23.41
2023-02-24T16:03:31.979Z,23.31
2023-02-24T16:04:31.958Z,23.48
2023-02-24T16:05:32.001Z,23.31
2023-02-24T16:06:32.073Z,23.53
2023-02-24T16:07:32.077Z,23.33
2023-02-24T16:08:32.111Z,23.23
2023-02-24T16:09:32.162Z,23.21
2023-02-24T16:10:32.174Z,23.26
2023-02-24T16:11:32.198Z,23.11
2023-02-24T16:12:32.226Z,23.04
2023-02-24T16:13:32.262Z,23.10
2023-02-24T16:14:32.302Z,23.06
2023-02-24T16:15:32.318Z,23.06
2023-02-24T16:16:32.398Z,22.98
2023-02-24T16:17:32.384Z,23.01
2023-02-24T16:18:32.433Z,23.12
2023-02-24T16:19:32.469Z,22.88
2023-02-24T16:20:32.491Z,22.74
2023-02-24T16:21:32.511Z,22.67
2023-02-24T16:22:32.546Z,22.79
2023-02-24T16:23:32.521Z,23.00
2023-02-24T16:24:32.577Z,22.70
2023-02-24T16:25:32.611Z,22.72
2023-02-24T16:26:32.651Z,22.54
2023-02-24T16:27:32.651Z,22.62
2023-02-24T16:28:32.669Z,22.52
2023-02-24T16:29:32.695Z,22.49
2023-02-24T16:30:32.811Z,22.52
2023-02-24T16:31:32.929Z,22.41
2023-02-24T16:32:32.976Z,22.40
2023-02-24T16:33:44.534Z,22.32
2023-02-24T16:34:33.827Z,22.28
2023-02-24T16:35:32.831Z,22.27
2023-02-24T16:36:32.847Z,22.37
2023-02-24T16:37:32.842Z,22.18
2023-02-24T16:38:32.838Z,22.18
2023-02-24T16:39:32.797Z,22.13
2023-02-24T16:40:32.792Z,22.28
2023-02-24T16:41:32.792Z,22.06
2023-02-24T16:42:32.761Z,22.16
2023-02-24T16:43:32.786Z,22.11
2023-02-24T16:44:32.783Z,22.11
2023-02-24T16:45:32.753Z,22.03
2023-02-24T16:46:32.776Z,22.06
2023-02-24T16:47:32.753Z,21.90
2023-02-24T16:48:32.746Z,21.84
2023-02-24T16:49:32.723Z,21.81
2023-02-24T16:50:32.782Z,21.82
2023-02-24T16:51:33.153Z,21.87
2023-02-24T16:52:32.847Z,21.93
2023-02-24T16:53:32.893Z,21.69
2023-02-24T16:54:32.944Z,21.78
2023-02-24T16:55:32.957Z,21.70
2023-02-24T16:56:32.988Z,21.63
2023-02-24T16:57:33.029Z,21.64
2023-02-24T16:58:33.070Z,21.60
2023-02-24T17:13:33.448Z,21.60
2023-02-24T17:14:33.485Z,21.56
2023-02-24T17:15:33.530Z,21.69
2023-02-24T17:16:33.518Z,21.57
2023-02-24T17:17:33.552Z,21.70
2023-02-24T17:18:33.614Z,21.62
2023-02-24T17:19:33.624Z,21.54
2023-02-24T17:20:33.615Z,21.48
2023-02-24T17:21:33.611Z,21.47
2023-02-24T17:22:35.700Z,21.54
2023-02-24T17:23:33.606Z,21.60
2023-02-24T17:24:33.621Z,21.74
2023-02-24T17:25:33.575Z,21.57
2023-02-24T17:26:33.591Z,21.57
2023-02-24T17:27:33.580Z,21.81
2023-02-24T17:28:33.592Z,21.53
2023-02-24T17:29:33.576Z,21.74
2023-02-24T17:30:33.682Z,21.63
2023-02-24T17:31:33.690Z,21.60
2023-02-24T17:32:33.548Z,21.64
2023-02-24T17:33:33.532Z,21.62
2023-02-24T17:34:33.536Z,21.86
2023-02-24T17:35:33.535Z,21.62
2023-02-24T17:36:33.515Z,21.51
2023-02-24T17:37:33.512Z,21.63
2023-02-24T17:38:33.491Z,21.47
2023-02-24T17:39:33.482Z,21.44
2023-02-24T17:40:33.466Z,21.50
2023-02-24T17:41:33.490Z,21.59
2023-02-24T17:42:33.453Z,21.66
2023-02-24T17:43:33.481Z,21.54
2023-02-24T17:44:33.491Z,21.50
2023-02-24T17:45:33.444Z,21.41
2023-02-24T17:46:33.457Z,21.42
2023-02-24T17:47:33.421Z,21.47
2023-02-24T17:48:33.403Z,21.57
2023-02-24T17:49:33.532Z,21.54
2023-02-24T17:50:33.451Z,21.33
2023-02-24T17:51:33.392Z,21.36
2023-02-24T17:52:33.367Z,21.37
2023-02-24T17:53:33.421Z,21.30
2023-02-24T17:54:33.359Z,21.45
2023-02-24T17:55:33.358Z,21.45
2023-02-24T17:56:33.369Z,21.45
2023-02-24T17:57:33.371Z,21.62
2023-02-24T17:58:33.320Z,21.51
2023-02-24T17:59:33.329Z,21.45
2023-02-24T18:00:33.318Z,21.42
2023-02-24T18:01:33.326Z,21.40
2023-02-24T18:02:33.373Z,21.36
2023-02-24T18:03:33.337Z,21.69
2023-02-24T18:04:34.193Z,21.57
2023-02-24T18:05:33.273Z,21.51
2023-02-24T18:06:33.282Z,21.48
2023-02-24T18:07:33.308Z,21.79
2023-02-24T18:08:33.277Z,21.44
2023-02-24T18:09:33.253Z,21.45
2023-02-24T18:10:33.248Z,21.42
2023-02-24T18:11:33.255Z,21.37
2023-02-24T18:12:33.263Z,21.37
2023-02-24T18:13:33.252Z,21.54
2023-02-24T18:14:33.228Z,21.56
2023-02-24T18:15:33.205Z,21.42
2023-02-24T18:16:33.313Z,21.25
2023-02-24T18:17:33.201Z,21.28
2023-02-24T18:18:33.211Z,21.48
2023-02-24T18:19:33.215Z,21.39
2023-02-24T18:20:33.160Z,21.32
2023-02-24T18:21:33.167Z,21.25
2023-02-24T18:22:33.178Z,21.37
2023-02-24T18:23:33.171Z,21.40
2023-02-24T18:24:33.169Z,21.57
2023-02-24T18:25:33.143Z,21.90
2023-02-24T18:26:33.159Z,21.69
2023-02-24T18:27:33.192Z,21.85
2023-02-24T18:28:33.185Z,21.60
2023-02-24T18:29:33.255Z,21.79
2023-02-24T18:30:33.322Z,21.99
2023-02-24T18:31:33.533Z,21.60
2023-02-24T18:32:33.607Z,21.63
2023-02-24T18:33:33.460Z,21.54
2023-02-24T18:34:33.373Z,21.48
2023-02-24T18:35:33.409Z,21.73
2023-02-24T18:36:33.457Z,21.87
2023-02-24T18:37:33.488Z,21.79
2023-02-24T18:38:33.489Z,21.54
2023-02-24T18:39:33.513Z,21.60
2023-02-24T18:40:33.529Z,21.48
2023-02-24T18:41:33.588Z,21.47
2023-02-24T18:45:33.669Z,21.50
2023-02-24T18:46:33.718Z,21.44
2023-02-24T18:47:33.758Z,21.63
2023-02-24T18:48:33.814Z,21.44
2023-02-24T18:49:33.883Z,21.37
2023-02-24T18:50:33.895Z,21.33
2023-02-24T18:51:33.916Z,21.36
2023-02-24T18:52:33.934Z,21.33
2023-02-24T18:53:33.961Z,21.28
2023-02-24T18:54:34.011Z,21.51
2023-02-24T18:55:34.158Z,21.44
2023-02-24T18:56:34.090Z,21.50
2023-02-24T18:57:34.098Z,21.48
2023-02-24T18:58:34.144Z,21.68
2023-02-24T18:59:34.152Z,21.79
2023-02-24T19:00:34.212Z,21.59
2023-02-24T19:01:34.300Z,21.56
2023-02-24T19:02:34.342Z,21.90
2023-02-24T19:03:34.348Z,21.85
2023-02-24T19:04:34.406Z,21.84
2023-02-24T19:05:38.757Z,22.06
2023-02-24T19:06:34.433Z,21.88
2023-02-24T19:07:34.448Z,22.05
2023-02-24T19:08:34.431Z,21.97
2023-02-24T19:09:34.459Z,21.66
2023-02-24T19:10:34.411Z,21.56
2023-02-24T19:11:34.426Z,21.51
2023-02-24T19:12:34.408Z,21.56
2023-02-24T19:13:34.401Z,21.59
2023-02-24T19:14:34.416Z,21.57
2023-02-24T19:15:34.390Z,21.56
2023-02-24T19:16:34.543Z,21.47
2023-02-24T19:17:34.374Z,21.50
2023-02-24T19:18:34.358Z,21.43
2023-02-24T19:19:34.379Z,21.42
2023-02-24T19:20:34.345Z,21.37
2023-02-24T19:21:34.362Z,21.34
2023-02-24T19:22:34.353Z,21.33
2023-02-24T19:23:34.349Z,21.37
2023-02-24T19:24:34.353Z,21.37
2023-02-24T19:25:34.315Z,21.60
2023-02-24T19:26:34.308Z,21.66
2023-02-24T19:27:34.349Z,21.63
2023-02-24T19:28:34.411Z,21.61
2023-02-24T19:29:34.447Z,21.64
2023-02-24T20:42:36.450Z,21.64
2023-02-24T20:43:36.489Z,21.64